createdAt,value
2018-02-08T00:01:25.441Z,-2.42
2018-02-08T00:03:52.959Z,-2.43
2018-02-08T00:06:20.483Z,-2.42
2018-02-08T00:08:48.044Z,-2.43
2018-02-08T00:11:15.574Z,-2.45
2018-02-08T00:13:43.097Z,-2.46
2018-02-08T00:16:10.628Z,-2.51
2018-02-08T00:18:38.149Z,-2.51
2018-02-08T00:21:05.675Z,-2.52
2018-02-08T00:23:33.201Z,-2.54
2018-02-08T00:26:00.730Z,-2.54
2018-02-08T00:28:28.257Z,-2.55
2018-02-08T00:30:55.801Z,-2.59
2018-02-08T00:33:23.334Z,-2.57
2018-02-08T00:35:50.860Z,-2.58
2018-02-08T00:38:18.395Z,-2.56
2018-02-08T00:40:45.939Z,-2.56
2018-02-08T00:43:13.471Z,-2.59
2018-02-08T00:45:41.001Z,-2.58
2018-02-08T00:48:08.524Z,-2.59
2018-02-08T00:50:36.048Z,-2.60
2018-02-08T00:53:03.578Z,-2.62
2018-02-08T00:55:31.100Z,-2.61
2018-02-08T00:57:58.623Z,-2.59
2018-02-08T01:00:26.152Z,-2.61
2018-02-08T01:02:53.676Z,-2.65
2018-02-08T01:05:21.200Z,-2.65
2018-02-08T01:07:48.732Z,-2.68
2018-02-08T01:10:16.262Z,-2.69
2018-02-08T01:12:43.805Z,-2.69
2018-02-08T01:15:11.336Z,-2.75
2018-02-08T01:17:38.864Z,-2.78
2018-02-08T01:20:06.388Z,-2.80
2018-02-08T01:22:33.935Z,-2.77
2018-02-08T01:25:01.473Z,-2.81
2018-02-08T01:27:28.992Z,-2.82
2018-02-08T01:29:56.516Z,-2.84
2018-02-08T01:32:24.052Z,-2.85
2018-02-08T01:34:51.581Z,-2.86
2018-02-08T01:37:19.107Z,-2.89
2018-02-08T01:39:46.626Z,-2.91
2018-02-08T01:42:14.159Z,-2.86
2018-02-08T01:44:41.693Z,-2.92
2018-02-08T01:47:09.227Z,-2.97
2018-02-08T01:49:45.603Z,-2.93
2018-02-08T01:52:13.128Z,-2.93
2018-02-08T01:54:40.661Z,-2.98
2018-02-08T01:57:08.185Z,-2.93
2018-02-08T01:59:35.706Z,-2.94
2018-02-08T02:02:03.237Z,-3.00
2018-02-08T02:04:30.752Z,-2.96
2018-02-08T02:06:58.317Z,-3.03
2018-02-08T02:09:25.843Z,-3.04
2018-02-08T02:11:53.375Z,-3.04
2018-02-08T02:14:20.936Z,-3.01
2018-02-08T02:16:48.451Z,-2.96
2018-02-08T02:19:15.984Z,-3.04
2018-02-08T02:21:43.509Z,-3.02
2018-02-08T02:24:11.028Z,-3.04
2018-02-08T02:26:38.540Z,-3.06
2018-02-08T02:29:06.085Z,-3.06
2018-02-08T02:31:33.599Z,-3.07
2018-02-08T02:34:01.132Z,-3.07
2018-02-08T02:36:28.660Z,-3.07
2018-02-08T02:38:56.184Z,-3.06
2018-02-08T02:41:23.712Z,-3.09
2018-02-08T02:43:51.236Z,-3.10
2018-02-08T02:46:18.759Z,-3.11
2018-02-08T02:48:46.296Z,-3.08
2018-02-08T02:51:13.816Z,-3.08
2018-02-08T02:53:41.337Z,-3.06
2018-02-08T02:56:08.865Z,-3.03
2018-02-08T02:58:36.383Z,-3.07
2018-02-08T03:01:03.916Z,-3.10
2018-02-08T03:03:31.432Z,-3.11
2018-02-08T03:05:58.960Z,-3.12
2018-02-08T03:08:26.488Z,-3.15
2018-02-08T03:10:54.009Z,-3.15
2018-02-08T03:13:21.546Z,-3.15
2018-02-08T03:15:49.060Z,-3.13
2018-02-08T03:18:16.596Z,-3.17
2018-02-08T03:20:44.128Z,-3.15
2018-02-08T03:23:11.647Z,-3.19
2018-02-08T03:25:39.165Z,-3.14
2018-02-08T03:28:06.700Z,-3.16
2018-02-08T03:30:35.655Z,-3.20
2018-02-08T03:33:03.186Z,-3.25
2018-02-08T03:35:30.708Z,-3.24
2018-02-08T03:37:58.233Z,-3.28
2018-02-08T03:40:25.756Z,-3.30
2018-02-08T03:42:53.289Z,-3.31
2018-02-08T03:45:20.810Z,-3.32
2018-02-08T03:47:48.328Z,-3.32
2018-02-08T03:50:15.865Z,-3.35
2018-02-08T03:52:43.387Z,-3.32
2018-02-08T03:55:10.908Z,-3.33
2018-02-08T03:57:38.441Z,-3.40
2018-02-08T04:00:05.965Z,-3.38
2018-02-08T04:02:33.501Z,-3.39
2018-02-08T04:05:01.021Z,-3.39
2018-02-08T04:07:28.538Z,-3.41
2018-02-08T04:09:56.065Z,-3.43
2018-02-08T04:12:23.599Z,-3.39
2018-02-08T04:14:51.113Z,-3.38
2018-02-08T04:17:18.642Z,-3.32
2018-02-08T04:19:46.175Z,-3.35
2018-02-08T04:22:13.699Z,-3.34
2018-02-08T04:24:41.229Z,-3.41
2018-02-08T04:27:08.753Z,-3.40
2018-02-08T04:29:36.278Z,-3.39
2018-02-08T04:32:03.821Z,-3.45
2018-02-08T04:36:58.169Z,-3.41
2018-02-08T04:39:37.605Z,-3.41
2018-02-08T04:42:16.996Z,-3.42
2018-02-08T04:44:56.432Z,-3.41
2018-02-08T04:47:32.646Z,-3.40
2018-02-08T04:50:00.176Z,-3.40
2018-02-08T04:52:27.703Z,-3.46
2018-02-08T04:54:55.220Z,-3.46
2018-02-08T04:57:22.745Z,-3.48
2018-02-08T04:59:50.286Z,-3.51
2018-02-08T05:02:19.700Z,-3.50
2018-02-08T05:04:47.222Z,-3.54
2018-02-08T05:07:14.763Z,-3.55
2018-02-08T05:09:42.284Z,-3.53
2018-02-08T05:12:09.810Z,-3.56
2018-02-08T05:14:37.340Z,-3.57
2018-02-08T05:17:04.852Z,-3.58
2018-02-08T05:19:32.376Z,-3.63
2018-02-08T05:21:59.923Z,-3.58
2018-02-08T05:24:27.468Z,-3.56
2018-02-08T05:26:55.022Z,-3.58
2018-02-08T05:29:22.546Z,-3.56
2018-02-08T05:31:50.059Z,-3.59
2018-02-08T05:34:17.596Z,-3.56
2018-02-08T05:36:45.119Z,-3.56
2018-02-08T05:39:12.650Z,-3.59
2018-02-08T05:41:40.342Z,-3.60
2018-02-08T05:44:07.860Z,-3.58
2018-02-08T05:46:35.389Z,-3.57
2018-02-08T05:49:02.919Z,-3.57
2018-02-08T05:51:30.447Z,-3.60
2018-02-08T05:53:57.987Z,-3.63
2018-02-08T05:56:25.510Z,-3.62
2018-02-08T05:58:53.038Z,-3.66
2018-02-08T06:01:20.565Z,-3.63
2018-02-08T06:03:48.084Z,-3.67
2018-02-08T06:06:15.601Z,-3.67
2018-02-08T06:08:43.128Z,-3.69
2018-02-08T06:11:10.669Z,-3.69
2018-02-08T06:13:38.187Z,-3.67
2018-02-08T06:16:05.716Z,-3.58
2018-02-08T06:18:33.236Z,-3.56
2018-02-08T06:21:00.764Z,-3.58
2018-02-08T06:23:28.300Z,-3.64
2018-02-08T06:25:55.815Z,-3.61
2018-02-08T06:28:23.371Z,-3.61
2018-02-08T06:30:50.905Z,-3.60
2018-02-08T06:33:18.428Z,-3.59
2018-02-08T06:35:45.954Z,-3.66
2018-02-08T06:38:13.483Z,-3.65
2018-02-08T06:40:41.001Z,-3.61
2018-02-08T06:43:08.525Z,-3.62
2018-02-08T06:45:36.054Z,-3.61
2018-02-08T06:48:03.584Z,-3.65
2018-02-08T06:50:31.103Z,-3.69
2018-02-08T06:52:58.630Z,-3.67
2018-02-08T06:55:26.153Z,-3.63
2018-02-08T06:57:53.713Z,-3.60
2018-02-08T07:00:21.241Z,-3.57
2018-02-08T07:02:48.773Z,-3.57
2018-02-08T07:05:16.295Z,-3.48
2018-02-08T07:07:43.816Z,-3.43
2018-02-08T07:10:11.344Z,-3.35
2018-02-08T07:12:38.873Z,-3.28
2018-02-08T07:15:06.393Z,-3.21
2018-02-08T07:17:33.924Z,-3.21
2018-02-08T07:20:11.962Z,-3.14
2018-02-08T07:22:39.493Z,-3.09
2018-02-08T07:25:07.015Z,-3.01
2018-02-08T07:27:34.548Z,-2.93
2018-02-08T07:30:02.110Z,-2.81
2018-02-08T07:32:29.660Z,-2.72
2018-02-08T07:34:57.232Z,-2.67
2018-02-08T07:37:24.760Z,-2.65
2018-02-08T07:39:52.290Z,-2.53
2018-02-08T07:42:19.826Z,-2.39
2018-02-08T07:44:47.386Z,-2.25
2018-02-08T07:47:15.100Z,-2.16
2018-02-08T07:49:42.622Z,-2.02
2018-02-08T07:52:10.152Z,-1.84
2018-02-08T07:54:37.684Z,-1.68
2018-02-08T07:57:05.221Z,-1.56
2018-02-08T07:59:32.756Z,-1.38
2018-02-08T08:02:00.286Z,-1.34
2018-02-08T08:04:27.807Z,-1.20
2018-02-08T08:06:55.327Z,-0.99
2018-02-08T08:09:22.877Z,-0.82
2018-02-08T08:11:50.412Z,-0.64
2018-02-08T08:14:17.948Z,-0.42
2018-02-08T08:16:45.481Z,-0.20
2018-02-08T08:19:13.011Z,0.22
2018-02-08T08:21:40.527Z,0.57
2018-02-08T08:24:08.072Z,0.69
2018-02-08T08:26:35.591Z,1.10
2018-02-08T08:29:03.104Z,1.28
2018-02-08T08:31:30.625Z,1.78
2018-02-08T08:33:58.136Z,1.76
2018-02-08T08:36:25.664Z,2.20
2018-02-08T08:38:53.194Z,2.25
2018-02-08T08:41:20.711Z,2.14
2018-02-08T08:43:48.235Z,2.18
2018-02-08T08:46:15.748Z,2.32
2018-02-08T08:48:43.277Z,2.78
2018-02-08T08:51:10.793Z,3.02
2018-02-08T08:53:38.309Z,2.82
2018-02-08T08:56:05.841Z,2.87
2018-02-08T08:58:33.352Z,3.46
2018-02-08T09:01:00.868Z,2.79
2018-02-08T09:03:28.373Z,2.96
2018-02-08T09:05:55.885Z,2.90
2018-02-08T09:08:23.393Z,2.94
2018-02-08T09:10:50.903Z,3.66
2018-02-08T09:13:18.437Z,3.68
2018-02-08T09:15:45.950Z,4.06
2018-02-08T09:18:13.488Z,4.81
2018-02-08T09:20:41.032Z,4.50
2018-02-08T09:23:08.561Z,4.48
2018-02-08T09:25:36.092Z,4.70
2018-02-08T09:28:03.620Z,5.32
2018-02-08T09:30:31.138Z,5.21
2018-02-08T09:32:58.672Z,5.77
2018-02-08T09:35:26.192Z,5.52
2018-02-08T09:37:53.740Z,5.35
2018-02-08T09:40:21.264Z,5.50
2018-02-08T09:42:48.779Z,5.39
2018-02-08T09:45:16.289Z,6.06
2018-02-08T09:47:43.812Z,6.92
2018-02-08T09:50:11.434Z,6.49
2018-02-08T09:52:38.982Z,6.22
2018-02-08T09:55:06.509Z,7.08
2018-02-08T09:57:34.024Z,7.34
2018-02-08T10:00:01.556Z,7.27
2018-02-08T10:02:29.076Z,7.68
2018-02-08T10:04:56.595Z,8.03
2018-02-08T10:07:24.116Z,7.31
2018-02-08T10:09:51.665Z,7.62
2018-02-08T10:12:19.184Z,8.01
2018-02-08T10:14:46.741Z,7.69
2018-02-08T10:17:14.257Z,7.95
2018-02-08T10:19:41.812Z,8.59
2018-02-08T10:22:09.397Z,8.71
2018-02-08T10:24:36.900Z,8.37
2018-02-08T10:27:04.428Z,7.46
2018-02-08T10:29:31.950Z,7.05
2018-02-08T10:31:59.459Z,7.12
2018-02-08T10:34:26.982Z,6.31
2018-02-08T10:36:54.507Z,6.26
2018-02-08T10:39:22.028Z,5.44
2018-02-08T10:41:49.544Z,5.47
2018-02-08T10:44:17.066Z,5.63
2018-02-08T10:46:44.591Z,4.83
2018-02-08T10:49:12.137Z,4.86
2018-02-08T10:51:39.663Z,4.11
2018-02-08T10:54:07.189Z,4.48
2018-02-08T10:56:34.700Z,4.31
2018-02-08T10:59:02.214Z,3.84
2018-02-08T11:01:29.735Z,3.98
2018-02-08T11:03:57.260Z,3.95
2018-02-08T11:06:24.787Z,3.58
2018-02-08T11:08:52.321Z,4.04
2018-02-08T11:11:19.860Z,3.84
2018-02-08T11:13:47.389Z,3.80
2018-02-08T11:16:14.916Z,3.59
2018-02-08T11:18:42.470Z,3.81
2018-02-08T11:21:09.989Z,3.54
2018-02-08T11:23:37.497Z,3.54
2018-02-08T11:26:05.011Z,3.29
2018-02-08T11:28:32.527Z,3.54
2018-02-08T11:31:00.039Z,3.58
2018-02-08T11:33:27.567Z,3.42
2018-02-08T11:35:55.189Z,3.47
2018-02-08T11:38:22.692Z,3.53
2018-02-08T11:40:50.233Z,3.36
2018-02-08T11:43:17.769Z,3.27
2018-02-08T11:45:45.284Z,3.43
2018-02-08T11:48:12.795Z,3.16
2018-02-08T11:50:40.329Z,3.08
2018-02-08T11:53:07.873Z,2.90
2018-02-08T11:55:35.407Z,3.23
2018-02-08T11:58:02.929Z,3.03
2018-02-08T12:00:31.271Z,3.14
2018-02-08T12:02:58.786Z,2.91
2018-02-08T12:05:26.315Z,3.07
2018-02-08T12:07:53.832Z,3.13
2018-02-08T12:10:21.346Z,2.63
2018-02-08T12:12:48.862Z,2.53
2018-02-08T12:15:16.403Z,2.76
2018-02-08T12:17:43.916Z,2.70
2018-02-08T12:20:11.437Z,2.65
2018-02-08T12:22:38.956Z,2.80
2018-02-08T12:25:06.484Z,2.93
2018-02-08T12:27:33.996Z,2.76
2018-02-08T12:30:01.516Z,2.63
2018-02-08T12:32:29.149Z,2.64
2018-02-08T12:34:56.669Z,2.52
2018-02-08T12:37:24.185Z,2.45
2018-02-08T12:39:51.828Z,2.35
2018-02-08T12:42:19.343Z,2.47
2018-02-08T12:44:46.863Z,2.51
2018-02-08T12:47:14.404Z,2.32
2018-02-08T12:49:41.923Z,2.32
2018-02-08T12:52:09.442Z,2.39
2018-02-08T12:54:36.965Z,2.29
2018-02-08T12:57:04.485Z,2.46
2018-02-08T12:59:32.030Z,2.36
2018-02-08T13:01:59.544Z,2.51
2018-02-08T13:04:27.118Z,2.36
2018-02-08T13:06:54.633Z,2.32
2018-02-08T13:09:22.155Z,2.48
2018-02-08T13:11:49.668Z,2.47
2018-02-08T13:14:17.181Z,2.34
2018-02-08T13:16:44.701Z,2.43
2018-02-08T13:19:12.226Z,2.39
2018-02-08T13:21:39.760Z,2.42
2018-02-08T13:24:07.280Z,2.52
2018-02-08T13:26:34.806Z,2.39
2018-02-08T13:29:02.336Z,2.23
2018-02-08T13:31:30.288Z,2.27
2018-02-08T13:33:57.791Z,2.26
2018-02-08T13:36:30.849Z,2.21
2018-02-08T13:38:58.357Z,2.13
2018-02-08T13:41:25.867Z,2.13
2018-02-08T13:43:53.383Z,2.25
2018-02-08T13:46:20.901Z,2.37
2018-02-08T13:48:50.924Z,2.30
2018-02-08T13:51:24.008Z,2.34
2018-02-08T13:56:59.358Z,2.27
2018-02-08T14:02:41.637Z,2.43
2018-02-08T14:05:09.204Z,2.33
2018-02-08T14:07:36.734Z,2.34
2018-02-08T14:10:04.275Z,2.35
2018-02-08T14:12:31.822Z,2.39
2018-02-08T14:14:59.982Z,2.30
2018-02-08T15:36:24.531Z,0.92
2018-02-08T15:38:52.142Z,0.88
2018-02-08T15:41:19.714Z,0.87
2018-02-08T15:43:48.150Z,0.87
2018-02-08T15:46:15.743Z,0.85
2018-02-08T15:48:43.307Z,0.78
2018-02-08T15:51:10.899Z,0.75
2018-02-08T15:53:40.448Z,0.73
2018-02-08T15:56:09.066Z,0.68
2018-02-08T15:58:37.496Z,0.65
2018-02-08T16:01:05.072Z,0.54
2018-02-08T16:03:32.662Z,0.45
2018-02-08T16:06:00.588Z,0.46
2018-02-08T16:08:28.178Z,0.36
2018-02-08T16:10:56.403Z,0.33
2018-02-08T16:13:24.545Z,0.25
2018-02-08T16:15:52.115Z,0.22
2018-02-08T16:18:19.688Z,0.21
2018-02-08T16:20:48.053Z,0.11
2018-02-08T16:23:15.627Z,0.07
2018-02-08T16:25:43.901Z,0.07
2018-02-08T16:28:11.474Z,-0.01
2018-02-08T16:30:39.044Z,-0.05
2018-02-08T16:33:06.650Z,-0.06
2018-02-08T16:35:34.241Z,-0.10
2018-02-08T16:38:01.812Z,-0.12
2018-02-08T16:40:29.395Z,-0.11
2018-02-08T16:42:58.689Z,-0.13
2018-02-08T16:45:26.274Z,-0.15
2018-02-08T16:47:53.933Z,-0.22
2018-02-08T16:50:21.514Z,-0.24
2018-02-08T16:52:49.074Z,-0.29
2018-02-08T16:55:16.643Z,-0.30
2018-02-08T16:57:44.310Z,-0.30
2018-02-08T17:00:11.930Z,-0.36
2018-02-08T17:02:41.732Z,-0.49
2018-02-08T17:05:10.052Z,-0.53
2018-02-08T17:07:37.644Z,-0.58
2018-02-08T17:10:05.741Z,-0.63
2018-02-08T17:12:34.104Z,-0.65
2018-02-08T17:15:01.823Z,-0.63
2018-02-08T17:17:29.449Z,-0.63
2018-02-08T17:19:57.025Z,-0.61
2018-02-08T17:22:24.918Z,-0.67
2018-02-08T17:24:53.120Z,-0.68
2018-02-08T17:27:20.744Z,-0.72
2018-02-08T17:29:48.324Z,-0.76
2018-02-08T17:32:17.673Z,-0.78
2018-02-08T17:34:45.295Z,-0.82
2018-02-08T17:37:12.896Z,-0.85
2018-02-08T17:39:46.890Z,-0.89
2018-02-08T17:42:27.472Z,-0.96
2018-02-08T17:44:59.162Z,-0.97
2018-02-08T17:47:29.338Z,-1.01
2018-02-08T17:49:58.156Z,-1.03
2018-02-08T17:52:25.775Z,-0.98
2018-02-08T17:54:54.988Z,-1.04
2018-02-08T17:57:23.785Z,-1.01
2018-02-08T17:59:55.118Z,-1.06
2018-02-08T18:02:23.571Z,-1.05
2018-02-08T18:04:54.194Z,-1.08
2018-02-08T18:07:21.803Z,-1.06
2018-02-08T18:09:49.545Z,-1.04
2018-02-08T18:12:19.979Z,-1.07
2018-02-08T18:14:49.435Z,-1.09
2018-02-08T18:17:17.031Z,-1.12
2018-02-08T18:19:45.333Z,-1.13
2018-02-08T18:22:14.178Z,-1.11
2018-02-08T18:24:42.562Z,-1.11
2018-02-08T18:27:12.219Z,-1.12
2018-02-08T18:29:39.958Z,-1.14
2018-02-08T19:45:04.670Z,-1.83
2018-02-08T19:47:33.558Z,-1.84
2018-02-08T19:50:01.366Z,-1.85
2018-02-08T19:52:28.970Z,-1.81
2018-02-08T19:54:59.116Z,-1.81
2018-02-08T19:57:27.683Z,-1.81
2018-02-08T19:59:56.475Z,-1.80
2018-02-08T20:02:25.550Z,-1.82
2018-02-08T20:04:55.452Z,-1.83
2018-02-08T20:07:24.577Z,-1.81
2018-02-08T20:09:56.783Z,-1.83
2018-02-08T20:12:33.330Z,-1.82
2018-02-08T20:28:27.526Z,-1.80
2018-02-08T20:31:01.626Z,-1.83
2018-02-08T20:33:29.961Z,-1.70
2018-02-08T20:35:57.863Z,-1.60
2018-02-08T20:38:40.058Z,-1.65
2018-02-08T20:41:14.075Z,-1.55
2018-02-08T20:43:42.906Z,-1.41
2018-02-08T20:46:10.445Z,-1.44
2018-02-08T20:53:56.546Z,-1.38
2018-02-08T20:56:33.581Z,-1.37
2018-02-08T20:59:02.009Z,-1.35
2018-02-08T21:01:29.580Z,-1.36
2018-02-08T21:03:58.569Z,-1.35
2018-02-08T21:06:28.989Z,-1.35
2018-02-08T21:08:58.278Z,-1.36
2018-02-08T21:11:29.726Z,-1.36
2018-02-08T21:13:57.285Z,-1.39
2018-02-08T21:16:24.841Z,-1.38
2018-02-08T21:18:52.474Z,-1.40
2018-02-08T21:21:20.038Z,-1.49
2018-02-08T21:23:47.570Z,-1.52
2018-02-08T21:26:15.097Z,-1.50
2018-02-08T21:28:42.723Z,-1.51
2018-02-08T21:31:10.270Z,-1.56
2018-02-08T21:33:37.810Z,-1.53
2018-02-08T21:36:05.346Z,-1.54
2018-02-08T21:38:32.896Z,-1.53
2018-02-08T21:41:00.434Z,-1.58
2018-02-08T21:43:27.966Z,-1.63
2018-02-08T21:45:58.272Z,-1.64
2018-02-08T21:48:25.833Z,-1.68
2018-02-08T21:50:53.983Z,-1.67
2018-02-08T21:53:21.528Z,-1.66
2018-02-08T21:55:49.080Z,-1.67
2018-02-08T21:58:16.600Z,-1.67
2018-02-08T22:00:44.118Z,-1.68
2018-02-08T22:03:11.633Z,-1.68
2018-02-08T22:05:39.181Z,-1.69
2018-02-08T22:08:06.752Z,-1.68
2018-02-08T22:10:34.329Z,-1.69
2018-02-08T22:13:01.851Z,-1.67
2018-02-08T22:15:29.375Z,-1.70
2018-02-08T22:17:57.019Z,-1.71
2018-02-08T22:20:24.715Z,-1.71
2018-02-08T22:22:52.235Z,-1.76
2018-02-08T22:25:19.760Z,-1.77
2018-02-08T22:27:47.291Z,-1.79
2018-02-08T22:30:14.814Z,-1.79
2018-02-08T22:32:42.453Z,-1.80
2018-02-08T22:35:10.044Z,-1.80
2018-02-08T22:37:37.585Z,-1.81
2018-02-08T22:40:05.116Z,-1.82
2018-02-08T22:42:34.216Z,-1.81
2018-02-08T22:45:03.181Z,-1.82
2018-02-08T22:47:31.441Z,-1.83
2018-02-08T22:50:01.021Z,-1.84
2018-02-08T22:52:29.259Z,-1.86
2018-02-08T22:54:59.965Z,-1.86
2018-02-08T22:57:28.781Z,-1.88
2018-02-08T22:59:57.022Z,-1.86
2018-02-08T23:02:27.290Z,-1.90
2018-02-08T23:04:56.935Z,-1.89
2018-02-08T23:07:25.753Z,-1.92
2018-02-08T23:09:54.034Z,-1.90
2018-02-08T23:12:22.863Z,-1.88
2018-02-08T23:14:52.409Z,-1.92
2018-02-08T23:17:21.078Z,-1.97
2018-02-08T23:19:53.455Z,-1.99
2018-02-08T23:22:21.863Z,-2.00
2018-02-08T23:24:50.972Z,-1.98
2018-02-08T23:27:18.479Z,-2.00
2018-02-08T23:29:46.002Z,-2.01
2018-02-08T23:32:13.541Z,-1.99
2018-02-08T23:34:41.689Z,-2.03
2018-02-08T23:37:10.817Z,-2.02
2018-02-08T23:39:39.172Z,-2.07
2018-02-08T23:42:07.996Z,-2.08
2018-02-08T23:44:37.208Z,-2.08
2018-02-08T23:47:06.398Z,-2.14
2018-02-08T23:49:34.796Z,-2.09
2018-02-08T23:52:05.236Z,-2.13
2018-02-08T23:54:33.928Z,-2.16
2018-02-08T23:57:04.677Z,-2.16
2018-02-08T23:59:34.736Z,-2.18
